Data for 07/16/2005

Time Sea-Level Adjusted Pressure Absolute Pressure Temperature Relative Humidity Dew Point   
(mb) (inHg) (mb) (inHg) (C) (F) (%) (C) (F)
00:05 1014 29.94 844 24.92 25.1 77.1 28 5.7 42.3
00:10 1014 29.94 844 24.92 26.2 79.2 22 2.8 37.1
00:15 1014 29.94 843 24.89 27.8 82 20 3.4 38.1
00:20 1014 29.94 843 24.89 28.2 82.7 20 3.5 38.4
00:25 1014 29.94 843 24.89 28.5 83.3 20 3.5 38.3
00:30 1014 29.94 843 24.89 28.6 83.4 19 3.3 37.9
00:35 1014 29.94 843 24.89 28.7 83.6 19 3 37.5
00:40 1014 29.94 843 24.89 28.7 83.6 19 3.1 37.6
00:45 1014 29.94 843 24.89 28.4 83.1 19 3.2 37.8
00:50 1014 29.94 843 24.89 28 82.3 20 3.5 38.4
00:55 1014 29.94 843 24.89 27.9 82.1 20 3.3 38
01:00 1014 29.94 843 24.89 27.7 81.9 21 3.8 38.8
01:05 1014 29.94 843 24.89 27.7 81.8 20 3.1 37.6
01:10 1014 29.94 843 24.89 27.7 81.9 21 3.7 38.7
01:15 1014 29.94 843 24.89 27.3 81.1 22 4 39.1
01:20 1014 29.94 843 24.89 26.9 80.5 22 3.7 38.6
01:25 1014 29.94 843 24.89 26.6 80 23 4 39.3
01:30 1014 29.94 843 24.89 26.7 80.1 21 3.1 37.7
01:35 1014 29.94 843 24.89 27.1 80.8 22 4 39.2
01:40 1014 29.94 843 24.89 26.9 80.4 20 2.1 35.7
01:45 1014 29.94 843 24.89 27.9 82.1 21 3.6 38.4
01:50 1014 29.94 843 24.89 27.4 81.3 21 3.2 37.7
01:55 1014 29.94 843 24.89 26.9 80.4 22 3.9 39
02:00 1014 29.94 843 24.89 26.5 79.7 21 3 37.4
02:05 1014 29.94 843 24.89 27.2 81 20 2.6 36.6
02:10 1014 29.94 843 24.89 27.7 81.9 20 3 37.4
02:15 1014 29.94 843 24.89 27.7 81.9 19 2.6 36.8
02:20 1014 29.94 843 24.89 28.1 82.6 19 2.6 36.7
02:25 1014 29.94 843 24.89 28.2 82.7 19 3 37.4
02:30 1014 29.94 843 24.89 27.9 82.2 20 3.4 38.2
02:35 1014 29.94 843 24.89 27.9 82.2 20 3.2 37.8
02:40 1014 29.94 843 24.89 28.6 83.5 18 2.1 35.8
02:45 1014 29.94 843 24.89 28.6 83.5 20 3.4 38.2
02:50 1014 29.94 843 24.89 28 82.4 21 3.9 39
02:55 1014 29.94 843 24.89 27.5 81.5 22 3.9 39.1
03:00 1014 29.94 843 24.89 27.3 81.2 22 3.8 38.8
03:05 1014 29.94 843 24.89 27.1 80.7 23 4.5 40.1
03:10 1014 29.94 843 24.89 26.8 80.2 25 5.5 41.9
03:15 1014 29.94 843 24.89 26.4 79.4 26 5.8 42.4
03:20 1014 29.94 843 24.89 26.8 80.2 25 5.7 42.2
03:25 1014 29.94 843 24.89 26.6 79.9 25 5.3 41.5
03:30 1014 29.94 843 24.89 26.8 80.3 25 5.4 41.8
03:35 1014 29.94 843 24.89 26.7 80.1 25 5.6 42
03:40 1013 29.91 843 24.89 26.5 79.6 26 5.7 42.2
03:45 1013 29.91 843 24.89 26.2 79.1 26 5.7 42.2
03:50 1013 29.91 842 24.86 25.9 78.6 28 6.1 43
03:55 1013 29.91 842 24.86 25.7 78.3 27 5.8 42.5
04:00 1013 29.91 842 24.86 25.6 78.1 28 6 42.8
04:05 1013 29.91 843 24.89 25.7 78.2 27 5.6 42.1
04:10 1013 29.91 842 24.86 25.8 78.4 27 5.5 41.8
04:15 1013 29.91 842 24.86 25.8 78.4 27 5.4 41.8
04:20 1013 29.91 842 24.86 25.7 78.2 27 5.4 41.8
04:25 1013 29.91 842 24.86 25.7 78.3 25 4.6 40.2
04:30 1013 29.91 842 24.86 26.3 79.3 25 4.7 40.5
04:35 1013 29.91 842 24.86 26.3 79.3 26 5.4 41.7
04:40 1013 29.91 842 24.86 26.3 79.3 23 3.8 38.9
04:45 1013 29.91 842 24.86 26.8 80.2 25 5.3 41.6
04:50 1013 29.91 842 24.86 26.3 79.4 24 4.7 40.4
04:55 1013 29.91 842 24.86 26.3 79.3 25 5.1 41.2
05:00 1013 29.91 842 24.86 25.9 78.6 26 5.2 41.3
05:05 1012 29.88 842 24.86 25.6 78.1 25 4.2 39.6
05:10 1012 29.88 842 24.86 25.6 78 27 5.4 41.8
05:15 1012 29.88 842 24.86 25.2 77.4 27 5.1 41.2
05:20 1012 29.88 842 24.86 25 77 29 5.7 42.3
05:25 1012 29.88 842 24.86 24.6 76.2 29 5.8 42.5
05:30 1012 29.88 842 24.86 24.5 76.1 28 5.3 41.6
05:35 1012 29.88 841 24.83 24.6 76.2 29 5.5 41.9
05:40 1012 29.88 842 24.86 24.4 75.8 30 5.9 42.5
05:45 1012 29.88 841 24.83 24.2 75.5 30 5.7 42.3
05:50 1012 29.88 841 24.83 24.4 75.8 28 5.1 41.2
05:55 1012 29.88 841 24.83 24.6 76.2 29 5.6 42.1
06:00 1012 29.88 842 24.86 24.5 76.1 30 5.9 42.6
06:05 1012 29.88 842 24.86 24.3 75.7 30 6 42.8
06:10 1012 29.88 842 24.86 24 75.2 31 6.1 43
06:15 1012 29.88 842 24.86 24 75.1 31 6 42.8
06:20 1012 29.88 842 24.86 23.8 74.9 32 6.3 43.4
06:25 1012 29.88 842 24.86 23.6 74.4 33 6.6 44
06:30 1012 29.88 842 24.86 23.1 73.5 34 6.6 43.8
06:35 1013 29.91 842 24.86 22.8 73.1 35 6.8 44.3
06:40 1013 29.91 842 24.86 22.6 72.6 37 7.3 45.1
06:45 1013 29.91 842 24.86 22.4 72.2 38 7.5 45.5
06:50 1013 29.91 842 24.86 22.2 72 39 7.7 45.9
06:55 1013 29.91 842 24.86 22 71.6 42 8.9 47.9
07:00 1013 29.91 842 24.86 21.3 70.4 47 9.8 49.7
07:05 1013 29.91 842 24.86 21.2 70.2 43 8.3 47
07:10 1013 29.91 842 24.86 21.5 70.6 43 8.4 47.1
07:15 1013 29.91 842 24.86 21.8 71.3 42 8.4 47.2
07:20 1013 29.91 842 24.86 22.1 71.7 42 8.8 47.9
07:25 1013 29.91 842 24.86 22.1 71.8 44 9.6 49.2
07:30 1013 29.91 843 24.89 22 71.6 44 9.4 49
07:35 1013 29.91 843 24.89 22.4 72.4 41 8.7 47.7
07:40 1013 29.91 843 24.89 22.8 73.1 40 8.8 47.8
07:45 1013 29.91 843 24.89 22.9 73.3 38 8.1 46.5
07:50 1013 29.91 843 24.89 22.9 73.1 40 8.6 47.5
07:55 1013 29.91 843 24.89 23.1 73.6 40 9 48.2
08:00 1013 29.91 843 24.89 23.2 73.7 39 8.8 47.9
08:05 1014 29.94 843 24.89 23 73.3 38 8 46.5
08:10 1014 29.94 843 24.89 23 73.4 38 8.2 46.7
08:15 1014 29.94 843 24.89 22.7 72.9 38 7.9 46.2
08:20 1014 29.94 843 24.89 22.9 73.3 36 7.4 45.3
08:25 1014 29.94 843 24.89 23.2 73.7 35 6.9 44.4
08:30 1014 29.94 843 24.89 23 73.4 33 5.9 42.7
08:35 1014 29.94 843 24.89 23 73.5 34 6.4 43.6
08:40 1014 29.94 843 24.89 23 73.5 34 6.5 43.7
08:45 1014 29.94 843 24.89 23.4 74.2 34 6.7 44
08:50 1014 29.94 843 24.89 23.4 74.1 34 6.7 44.1
08:55 1014 29.94 843 24.89 23.2 73.8 35 7.1 44.7
09:00 1014 29.94 843 24.89 22.9 73.2 37 7.8 46
09:05 1014 29.94 843 24.89 22.7 72.8 39 8.3 46.9
09:10 1014 29.94 843 24.89 22.5 72.6 41 8.8 47.8
09:15 1013 29.91 843 24.89 22.4 72.3 40 8.2 46.8
09:20 1013 29.91 843 24.89 22.5 72.4 39 8.1 46.5
09:25 1013 29.91 843 24.89 22.5 72.4 38 7.6 45.6
09:30 1013 29.91 843 24.89 22.6 72.6 38 7.8 46
09:35 1013 29.91 843 24.89 23 73.5 35 7 44.6
09:40 1013 29.91 842 24.86 23.2 73.7 35 6.9 44.5
09:45 1013 29.91 842 24.86 23.2 73.7 36 7.5 45.5
09:50 1013 29.91 842 24.86 23.6 74.4 33 6.5 43.8
09:55 1013 29.91 842 24.86 24.1 75.3 29 5.2 41.3
10:00 1013 29.91 842 24.86 24.7 76.5 31 6.7 44.1
10:05 1013 29.91 842 24.86 25.2 77.4 27 5.4 41.7
10:10 1013 29.91 842 24.86 25.5 77.9 27 5.3 41.5
10:15 1013 29.91 842 24.86 25.8 78.4 26 4.9 40.8
10:20 1013 29.91 842 24.86 26.1 79 26 5.4 41.6
10:25 1013 29.91 842 24.86 26.5 79.7 27 6 42.8
10:30 1013 29.91 842 24.86 26.6 79.8 28 6.8 44.3
10:35 1013 29.91 842 24.86 26.7 80 26 5.8 42.4
10:40 1013 29.91 842 24.86 26.2 79.2 27 5.9 42.7
10:45 1012 29.88 842 24.86 26.2 79.1 26 5.4 41.8
10:50 1012 29.88 842 24.86 27.3 81.2 25 5.6 42.1
10:55 1012 29.88 842 24.86 28.5 83.2 23 5.7 42.2
11:00 1012 29.88 842 24.86 28.5 83.3 23 5.4 41.8
11:05 1012 29.88 842 24.86 28.1 82.5 23 5.1 41.2
11:10 1012 29.88 841 24.83 28.2 82.7 23 5.6 42.1
11:15 1012 29.88 841 24.83 28.3 83 24 5.9 42.6
11:20 1012 29.88 841 24.83 28.3 82.9 23 5.3 41.6
11:25 1012 29.88 841 24.83 28.9 84 23 5.8 42.4
11:30 1012 29.88 841 24.83 29.6 85.3 23 6.6 43.8
11:35 1012 29.88 841 24.83 30 86 23 6.9 44.4
11:40 1012 29.88 841 24.83 30.2 86.3 22 6.4 43.6
11:45 1012 29.88 841 24.83 30.2 86.4 22 6.4 43.5
11:50 1012 29.88 841 24.83 30 86.1 22 6.5 43.6
11:55 1012 29.88 841 24.83 30.3 86.6 20 5.2 41.3
12:00 1012 29.88 841 24.83 30.6 87 21 6.2 43.1
12:05 1011 29.85 841 24.83 31 87.8 22 6.9 44.4
12:10 1011 29.85 841 24.83 31.2 88.1 21 6.5 43.7
12:15 1011 29.85 840 24.81 31.1 88 20 5.9 42.6
12:20 1011 29.85 840 24.81 31.5 88.8 17 4.3 39.8
12:25 1011 29.85 840 24.81 31.7 89.1 16 3.3 37.9
12:30 1011 29.85 840 24.81 31.7 89.1 19 5.5 42
12:35 1011 29.85 840 24.81 31.5 88.7 18 4.8 40.6
12:40 1011 29.85 840 24.81 31 87.8 19 5.2 41.4
12:45 1011 29.85 840 24.81 30.7 87.3 18 4.4 39.9
12:50 1011 29.85 840 24.81 30.7 87.2 19 4.9 40.9
12:55 1011 29.85 840 24.81 31.3 88.3 19 5 41
13:00 1011 29.85 840 24.81 31.8 89.2 17 4.3 39.7
13:05 1011 29.85 840 24.81 32 89.5 17 4.6 40.2
13:10 1010 29.83 840 24.81 32.2 89.9 15 3 37.3
13:15 1010 29.83 840 24.81 32.1 89.7 15 2.8 37
13:20 1010 29.83 840 24.81 32.9 91.3 15 3.4 38
13:25 1010 29.83 839 24.78 33 91.4 15 2.9 37.3
13:30 1010 29.83 839 24.78 33.2 91.8 15 3.1 37.5
13:35 1010 29.83 839 24.78 33.5 92.2 14 2.7 36.8
13:40 1010 29.83 839 24.78 33.4 92.1 14 3.1 37.5
13:45 1010 29.83 839 24.78 33.3 91.9 14 2.6 36.7
13:50 1010 29.83 839 24.78 33.1 91.5 13 1.8 35.2
13:55 1010 29.83 839 24.78 33 91.3 13 1.3 34.3
14:00 1010 29.83 839 24.78 32.9 91.2 13 1.3 34.3
14:05 1010 29.83 839 24.78 33.2 91.8 13 1 33.8
14:10 1010 29.83 839 24.78 33.4 92.2 13 1.4 34.5
14:15 1009 29.8 839 24.78 33.5 92.3 13 1.2 34.2
14:20 1009 29.8 839 24.78 33.5 92.3 13 1.7 35
14:25 1009 29.8 839 24.78 33.5 92.2 13 1.9 35.4
14:30 1009 29.8 839 24.78 33.6 92.5 13 1.4 34.5
14:35 1009 29.8 838 24.75 33.4 92.1 16 4.2 39.5
14:40 1009 29.8 838 24.75 32.5 90.5 18 5.5 41.8
14:45 1009 29.8 838 24.75 32.5 90.5 17 4.8 40.6
14:50 1009 29.8 839 24.78 32.6 90.7 19 6.1 42.9
14:55 1009 29.8 838 24.75 32.5 90.5 18 5.4 41.8
15:00 1009 29.8 838 24.75 32.7 90.8 16 4 39.1
15:05 1009 29.8 839 24.78 32.7 90.9 18 5.3 41.6
15:10 1009 29.8 838 24.75 33 91.4 18 5.8 42.4
15:15 1009 29.8 838 24.75 32.9 91.2 16 4.4 39.9
15:20 1009 29.8 839 24.78 32.6 90.7 19 6.1 42.9
15:25 1009 29.8 839 24.78 32.1 89.7 18 4.9 40.8
15:30 1009 29.8 838 24.75 32.1 89.9 17 4.8 40.6
15:35 1009 29.8 838 24.75 32.3 90.2 18 5.3 41.5
15:40 1009 29.8 838 24.75 31.9 89.4 17 4.5 40
15:45 1009 29.8 838 24.75 31.7 89.1 17 4.4 39.9
15:50 1009 29.8 838 24.75 31.4 88.4 18 4.3 39.8
15:55 1009 29.8 838 24.75 31.1 88 16 3.1 37.6
16:00 1009 29.8 838 24.75 31.1 87.9 17 3.9 39.1
16:05 1009 29.8 838 24.75 31.7 89 18 4.6 40.3
16:10 1009 29.8 838 24.75 31.3 88.4 19 5.1 41.1
16:15 1009 29.8 838 24.75 31.2 88.1 18 4.5 40.1
16:20 1009 29.8 838 24.75 31.5 88.7 18 4.5 40.2
16:25 1009 29.8 838 24.75 31.8 89.2 18 4.7 40.4
16:30 1009 29.8 838 24.75 31.7 89.1 18 5 41.1
16:35 1009 29.8 838 24.75 30.9 87.7 19 5.3 41.6
16:40 1009 29.8 838 24.75 30.2 86.4 20 5.1 41.3
16:45 1009 29.8 838 24.75 29.4 84.9 20 4.6 40.3
16:50 1009 29.8 838 24.75 29 84.2 21 5.1 41.2
16:55 1009 29.8 838 24.75 28.6 83.5 22 4.9 40.9
17:00 1009 29.8 839 24.78 28.3 83 22 4.6 40.3
17:05 1010 29.83 839 24.78 28.2 82.8 22 5 41
17:10 1010 29.83 839 24.78 27.7 81.9 23 5 40.9
17:15 1010 29.83 839 24.78 27.2 81 23 4.8 40.7
17:20 1010 29.83 839 24.78 27 80.6 24 5 41
17:25 1010 29.83 840 24.81 26.8 80.3 25 5.6 42.1
17:30 1011 29.85 840 24.81 26.7 80 24 5 41
17:35 1011 29.85 840 24.81 26.5 79.7 25 5 41.1
17:40 1011 29.85 840 24.81 26.4 79.5 25 5.1 41.2
17:45 1011 29.85 840 24.81 26.4 79.5 26 5.4 41.7
17:50 1011 29.85 840 24.81 26.5 79.7 26 5.4 41.8
17:55 1011 29.85 840 24.81 26.5 79.7 25 5.2 41.4
18:00 1011 29.85 841 24.83 26.6 80 24 4.9 40.9
18:05 1011 29.85 841 24.83 27 80.6 24 4.9 40.9
18:10 1012 29.88 841 24.83 27.3 81.1 24 5 41
18:15 1012 29.88 841 24.83 27.1 80.8 25 5.7 42.3
18:20 1012 29.88 841 24.83 27.2 80.9 24 5.3 41.6
18:25 1012 29.88 841 24.83 27.1 80.9 24 4.9 40.8
18:30 1012 29.88 841 24.83 26.9 80.4 23 4.4 39.9
18:35 1012 29.88 841 24.83 26.7 80.1 24 4.6 40.2
18:40 1012 29.88 841 24.83 26.9 80.4 23 4.5 40.2
18:45 1012 29.88 841 24.83 26.8 80.2 24 4.6 40.3
18:50 1012 29.88 842 24.86 26.8 80.2 24 4.9 40.8
18:55 1013 29.91 842 24.86 26.8 80.2 24 4.9 40.9
19:00 1013 29.91 842 24.86 26.5 79.7 24 4.8 40.7
19:05 1013 29.91 842 24.86 26 78.7 25 4.5 40
19:10 1013 29.91 842 24.86 25.8 78.4 25 4.3 39.8
19:15 1013 29.91 842 24.86 25.6 78 25 4.4 40
19:20 1013 29.91 842 24.86 25.3 77.6 26 4.5 40.1
19:25 1013 29.91 842 24.86 24.7 76.5 26 4 39.2
19:30 1013 29.91 842 24.86 24.3 75.7 26 4 39.2
19:35 1013 29.91 842 24.86 24 75.2 26 3.6 38.6
19:40 1013 29.91 842 24.86 23.9 75 27 3.7 38.7
19:45 1013 29.91 842 24.86 23.8 74.8 27 4.1 39.3
19:50 1013 29.91 842 24.86 23.6 74.5 28 4 39.2
19:55 1013 29.91 843 24.89 23.5 74.2 28 4.1 39.3
20:00 1013 29.91 843 24.89 23.4 74.1 28 3.8 38.9
20:05 1013 29.91 843 24.89 23.3 74 28 4.1 39.4
20:10 1014 29.94 843 24.89 23.2 73.7 29 4.4 39.9
20:15 1014 29.94 843 24.89 23.1 73.6 29 4.5 40.2
20:20 1014 29.94 843 24.89 22.8 73.1 30 4.5 40.1
20:25 1014 29.94 843 24.89 22.6 72.6 30 4.5 40.1
20:30 1014 29.94 843 24.89 22.5 72.5 30 4.4 39.9
20:35 1014 29.94 843 24.89 22.5 72.5 30 4.4 40
20:40 1014 29.94 843 24.89 22.4 72.3 31 4.7 40.5
20:45 1014 29.94 843 24.89 22.4 72.2 31 4.5 40.1
20:50 1014 29.94 843 24.89 22.4 72.3 31 4.6 40.2
20:55 1014 29.94 844 24.92 22.4 72.3 31 4.7 40.5
21:00 1014 29.94 844 24.92 22.2 72 31 4.4 39.8
21:05 1014 29.94 844 24.92 22.2 72 29 3.7 38.7
21:10 1015 29.97 844 24.92 22.3 72.1 30 4.2 39.5
21:15 1015 29.97 844 24.92 21.7 71 33 5.1 41.1
21:20 1015 29.97 844 24.92 20.5 69 35 4.8 40.7
21:25 1015 29.97 845 24.95 20 68 37 5 41
21:30 1016 30 845 24.95 19.7 67.5 38 5.3 41.6
21:35 1016 30 845 24.95 19.4 66.8 41 5.9 42.5
21:40 1016 30 845 24.95 19 66.1 42 5.9 42.7
21:45 1017 30.03 846 24.98 18.8 65.9 43 6.1 42.9
21:50 1017 30.03 846 24.98 18.3 65 56 9.6 49.3
21:55 1017 30.03 846 24.98 16.6 61.9 65 10.1 50.3
22:00 1017 30.03 847 25.01 15.8 60.4 69 10.1 50.2
22:05 1018 30.06 847 25.01 15.7 60.3 69 10.1 50.2
22:10 1018 30.06 847 25.01 15.7 60.2 64 9 48.3
22:15 1018 30.06 848 25.04 15.7 60.3 67 9.6 49.3
22:20 1018 30.06 848 25.04 15.5 59.9 69 9.9 49.8
22:25 1019 30.09 848 25.04 15.3 59.5 70 9.9 49.8
22:30 1018 30.06 848 25.04 15.1 59.3 71 10 50
22:35 1019 30.09 848 25.04 15.1 59.1 72 10.2 50.4
22:40 1019 30.09 848 25.04 14.9 58.8 74 10.3 50.5
22:45 1019 30.09 848 25.04 14.9 58.8 75 10.6 51
22:50 1019 30.09 848 25.04 14.7 58.4 76 10.5 50.8
22:55 1019 30.09 849 25.07 14.3 57.8 79 10.7 51.3
23:00 1019 30.09 849 25.07 14.1 57.3 80 10.8 51.4
23:05 1020 30.12 849 25.07 13.7 56.6 82 10.7 51.2
23:10 1019 30.09 849 25.07 13.6 56.4 83 10.8 51.4
23:15 1019 30.09 849 25.07 13.4 56.1 84 10.8 51.4
23:20 1020 30.12 849 25.07 13.1 55.6 85 10.7 51.2
23:25 1020 30.12 849 25.07 12.9 55.3 83 10.2 50.4
23:30 1019 30.09 849 25.07 13 55.4 85 10.6 51
23:35 1020 30.12 849 25.07 12.9 55.2 85 10.4 50.8
23:40 1020 30.12 849 25.07 12.9 55.2 83 10.1 50.2
23:45 1020 30.12 849 25.07 13.1 55.6 81 10 50
23:50 1020 30.12 849 25.07 13.4 56.1 81 10.3 50.5
23:55 1020 30.12 849 25.07 13.5 56.3 78 9.7 49.5
24:00 1020 30.12 849 25.07 13.6 56.5 75 9.3 48.7